Terminal Aerodrome Forecast
Issued by NWS Flagstaff, AZ

Home | Current Version | Previous Version | Text Only | Print | Product List | Glossary On
Versions: 1 2 3 4 5 6 7 8 9 10 11 12 13 14 15 16 17 18 19
399
FTUS45 KFGZ 280542
TAFINW
TAF
KINW 280542Z 2806/0106 20011KT P6SM FEW035 OVC050
      TEMPO 2806/2810 6SM -SHRA BKN035
     FM281000 20010KT 5SM -SHRA BKN035
     FM281600 21018KT P6SM OVC045=

USA.gov is the U.S. government's official web portal to all federal, state and local government web resources and services.